sensor_id;sensor_type;location;lat;lon;timestamp;P1;durP1;ratioP1;P2;durP2;ratioP2
38629;SDS011;24384;51.988;4.644;2023-12-28T00:01:22;8.20;;;4.38;;
38629;SDS011;24384;51.988;4.644;2023-12-28T00:03:49;8.93;;;3.47;;
38629;SDS011;24384;51.988;4.644;2023-12-28T00:06:15;7.78;;;3.30;;
38629;SDS011;24384;51.988;4.644;2023-12-28T00:08:40;6.38;;;2.92;;
38629;SDS011;24384;51.988;4.644;2023-12-28T00:11:06;9.40;;;2.75;;
38629;SDS011;24384;51.988;4.644;2023-12-28T00:13:31;8.82;;;3.38;;
38629;SDS011;24384;51.988;4.644;2023-12-28T00:15:58;8.10;;;3.15;;
38629;SDS011;24384;51.988;4.644;2023-12-28T00:18:23;7.63;;;2.95;;
38629;SDS011;24384;51.988;4.644;2023-12-28T00:20:49;7.53;;;2.90;;
38629;SDS011;24384;51.988;4.644;2023-12-28T00:23:15;12.60;;;3.58;;
38629;SDS011;24384;51.988;4.644;2023-12-28T00:25:40;11.15;;;3.78;;
38629;SDS011;24384;51.988;4.644;2023-12-28T00:28:05;7.20;;;2.40;;
38629;SDS011;24384;51.988;4.644;2023-12-28T00:30:30;7.95;;;2.60;;
38629;SDS011;24384;51.988;4.644;2023-12-28T00:32:57;8.02;;;3.20;;
38629;SDS011;24384;51.988;4.644;2023-12-28T00:35:22;13.25;;;3.08;;
38629;SDS011;24384;51.988;4.644;2023-12-28T00:37:49;9.85;;;2.15;;
38629;SDS011;24384;51.988;4.644;2023-12-28T00:40:15;11.63;;;2.70;;
38629;SDS011;24384;51.988;4.644;2023-12-28T00:42:40;7.45;;;2.58;;
38629;SDS011;24384;51.988;4.644;2023-12-28T00:45:07;10.73;;;2.85;;
38629;SDS011;24384;51.988;4.644;2023-12-28T00:47:33;17.23;;;2.80;;
38629;SDS011;24384;51.988;4.644;2023-12-28T00:49:58;9.20;;;3.05;;
38629;SDS011;24384;51.988;4.644;2023-12-28T00:52:24;7.32;;;2.30;;
38629;SDS011;24384;51.988;4.644;2023-12-28T00:54:50;8.75;;;2.80;;
38629;SDS011;24384;51.988;4.644;2023-12-28T00:57:16;8.43;;;2.85;;
38629;SDS011;24384;51.988;4.644;2023-12-28T00:59:41;9.77;;;3.10;;
38629;SDS011;24384;51.988;4.644;2023-12-28T01:02:07;12.95;;;2.90;;
38629;SDS011;24384;51.988;4.644;2023-12-28T01:04:32;9.73;;;2.75;;
38629;SDS011;24384;51.988;4.644;2023-12-28T01:06:57;6.30;;;2.08;;
38629;SDS011;24384;51.988;4.644;2023-12-28T01:09:27;9.23;;;2.42;;
38629;SDS011;24384;51.988;4.644;2023-12-28T01:11:53;11.30;;;2.70;;
38629;SDS011;24384;51.988;4.644;2023-12-28T01:14:18;6.85;;;2.20;;
38629;SDS011;24384;51.988;4.644;2023-12-28T01:16:43;8.35;;;3.45;;
38629;SDS011;24384;51.988;4.644;2023-12-28T01:19:10;7.88;;;2.85;;
38629;SDS011;24384;51.988;4.644;2023-12-28T01:21:35;10.48;;;3.35;;
38629;SDS011;24384;51.988;4.644;2023-12-28T01:24:01;7.72;;;2.40;;
38629;SDS011;24384;51.988;4.644;2023-12-28T01:26:26;9.88;;;2.63;;
38629;SDS011;24384;51.988;4.644;2023-12-28T01:28:51;8.10;;;2.70;;
38629;SDS011;24384;51.988;4.644;2023-12-28T01:31:17;7.03;;;2.72;;
38629;SDS011;24384;51.988;4.644;2023-12-28T01:33:42;6.80;;;3.17;;
38629;SDS011;24384;51.988;4.644;2023-12-28T01:36:17;6.63;;;2.78;;
38629;SDS011;24384;51.988;4.644;2023-12-28T01:38:44;7.53;;;2.83;;
38629;SDS011;24384;51.988;4.644;2023-12-28T01:41:11;12.88;;;4.07;;
38629;SDS011;24384;51.988;4.644;2023-12-28T01:43:37;6.38;;;3.20;;
38629;SDS011;24384;51.988;4.644;2023-12-28T01:46:04;9.30;;;3.22;;
38629;SDS011;24384;51.988;4.644;2023-12-28T01:48:56;9.27;;;2.47;;
38629;SDS011;24384;51.988;4.644;2023-12-28T01:51:22;5.90;;;2.53;;
38629;SDS011;24384;51.988;4.644;2023-12-28T01:53:48;8.98;;;2.50;;
38629;SDS011;24384;51.988;4.644;2023-12-28T01:56:15;12.98;;;3.13;;
38629;SDS011;24384;51.988;4.644;2023-12-28T01:58:43;13.18;;;2.80;;
38629;SDS011;24384;51.988;4.644;2023-12-28T02:01:11;8.02;;;2.80;;
38629;SDS011;24384;51.988;4.644;2023-12-28T02:03:38;14.07;;;3.08;;
38629;SDS011;24384;51.988;4.644;2023-12-28T02:06:04;8.43;;;2.58;;
38629;SDS011;24384;51.988;4.644;2023-12-28T02:08:32;7.13;;;2.90;;
38629;SDS011;24384;51.988;4.644;2023-12-28T02:10:57;6.15;;;3.10;;
38629;SDS011;24384;51.988;4.644;2023-12-28T02:13:23;7.68;;;2.35;;
38629;SDS011;24384;51.988;4.644;2023-12-28T02:15:51;15.40;;;5.40;;
38629;SDS011;24384;51.988;4.644;2023-12-28T02:18:21;8.68;;;2.67;;
38629;SDS011;24384;51.988;4.644;2023-12-28T02:20:52;9.93;;;2.78;;
38629;SDS011;24384;51.988;4.644;2023-12-28T02:23:19;7.10;;;2.85;;
38629;SDS011;24384;51.988;4.644;2023-12-28T02:25:44;6.13;;;2.63;;
38629;SDS011;24384;51.988;4.644;2023-12-28T02:28:09;12.02;;;2.58;;
38629;SDS011;24384;51.988;4.644;2023-12-28T02:30:35;7.72;;;3.55;;
38629;SDS011;24384;51.988;4.644;2023-12-28T02:33:07;11.45;;;3.05;;
38629;SDS011;24384;51.988;4.644;2023-12-28T02:35:36;9.18;;;2.65;;
38629;SDS011;24384;51.988;4.644;2023-12-28T02:38:09;10.75;;;2.58;;
38629;SDS011;24384;51.988;4.644;2023-12-28T02:40:36;6.60;;;2.60;;
38629;SDS011;24384;51.988;4.644;2023-12-28T02:43:04;11.57;;;3.63;;
38629;SDS011;24384;51.988;4.644;2023-12-28T02:45:31;9.85;;;2.92;;
38629;SDS011;24384;51.988;4.644;2023-12-28T02:47:58;8.63;;;2.60;;
38629;SDS011;24384;51.988;4.644;2023-12-28T02:50:24;11.52;;;2.55;;
38629;SDS011;24384;51.988;4.644;2023-12-28T02:52:49;9.32;;;2.25;;
38629;SDS011;24384;51.988;4.644;2023-12-28T02:55:15;9.07;;;2.42;;
38629;SDS011;24384;51.988;4.644;2023-12-28T02:57:40;7.68;;;2.22;;
38629;SDS011;24384;51.988;4.644;2023-12-28T03:00:06;8.07;;;2.30;;
38629;SDS011;24384;51.988;4.644;2023-12-28T03:02:33;5.47;;;2.85;;
38629;SDS011;24384;51.988;4.644;2023-12-28T03:05:02;8.32;;;2.97;;
38629;SDS011;24384;51.988;4.644;2023-12-28T03:07:29;9.45;;;2.45;;
38629;SDS011;24384;51.988;4.644;2023-12-28T03:09:54;9.73;;;2.03;;
38629;SDS011;24384;51.988;4.644;2023-12-28T03:12:20;8.25;;;2.22;;
38629;SDS011;24384;51.988;4.644;2023-12-28T03:14:45;9.55;;;2.40;;
38629;SDS011;24384;51.988;4.644;2023-12-28T03:17:10;11.75;;;2.20;;
38629;SDS011;24384;51.988;4.644;2023-12-28T03:19:37;14.13;;;2.58;;
38629;SDS011;24384;51.988;4.644;2023-12-28T03:22:02;9.63;;;2.70;;
38629;SDS011;24384;51.988;4.644;2023-12-28T03:24:28;17.67;;;4.30;;
38629;SDS011;24384;51.988;4.644;2023-12-28T03:26:53;9.30;;;2.35;;
38629;SDS011;24384;51.988;4.644;2023-12-28T03:29:19;8.93;;;2.17;;
38629;SDS011;24384;51.988;4.644;2023-12-28T03:31:46;10.13;;;2.03;;
38629;SDS011;24384;51.988;4.644;2023-12-28T03:34:11;10.07;;;2.33;;
38629;SDS011;24384;51.988;4.644;2023-12-28T03:36:37;12.10;;;2.63;;
38629;SDS011;24384;51.988;4.644;2023-12-28T03:39:02;9.77;;;2.20;;
38629;SDS011;24384;51.988;4.644;2023-12-28T03:41:30;7.25;;;2.78;;
38629;SDS011;24384;51.988;4.644;2023-12-28T03:43:56;12.00;;;2.40;;
38629;SDS011;24384;51.988;4.644;2023-12-28T03:46:21;14.48;;;3.25;;
38629;SDS011;24384;51.988;4.644;2023-12-28T03:48:46;14.32;;;2.65;;
38629;SDS011;24384;51.988;4.644;2023-12-28T03:51:15;6.22;;;2.60;;
38629;SDS011;24384;51.988;4.644;2023-12-28T03:53:41;11.70;;;2.95;;
38629;SDS011;24384;51.988;4.644;2023-12-28T03:56:17;12.73;;;2.35;;
38629;SDS011;24384;51.988;4.644;2023-12-28T03:58:43;8.98;;;2.15;;
38629;SDS011;24384;51.988;4.644;2023-12-28T04:01:09;11.65;;;2.13;;
38629;SDS011;24384;51.988;4.644;2023-12-28T04:03:34;6.45;;;2.00;;
38629;SDS011;24384;51.988;4.644;2023-12-28T04:06:00;12.77;;;2.88;;
38629;SDS011;24384;51.988;4.644;2023-12-28T04:08:25;11.63;;;2.42;;
38629;SDS011;24384;51.988;4.644;2023-12-28T04:10:50;14.15;;;2.75;;
38629;SDS011;24384;51.988;4.644;2023-12-28T04:13:16;12.95;;;3.13;;
38629;SDS011;24384;51.988;4.644;2023-12-28T04:15:41;13.52;;;2.78;;
38629;SDS011;24384;51.988;4.644;2023-12-28T04:18:08;15.55;;;3.10;;
38629;SDS011;24384;51.988;4.644;2023-12-28T04:20:33;13.75;;;2.35;;
38629;SDS011;24384;51.988;4.644;2023-12-28T04:22:58;11.68;;;2.90;;
38629;SDS011;24384;51.988;4.644;2023-12-28T04:25:24;13.38;;;3.03;;
38629;SDS011;24384;51.988;4.644;2023-12-28T04:27:49;12.35;;;3.03;;
38629;SDS011;24384;51.988;4.644;2023-12-28T04:30:14;12.77;;;1.98;;
38629;SDS011;24384;51.988;4.644;2023-12-28T04:32:39;6.65;;;2.08;;
38629;SDS011;24384;51.988;4.644;2023-12-28T04:35:05;9.82;;;2.13;;
38629;SDS011;24384;51.988;4.644;2023-12-28T04:37:31;14.98;;;2.90;;
38629;SDS011;24384;51.988;4.644;2023-12-28T04:39:57;13.40;;;2.47;;
38629;SDS011;24384;51.988;4.644;2023-12-28T04:42:23;17.50;;;3.90;;
38629;SDS011;24384;51.988;4.644;2023-12-28T04:44:48;10.65;;;2.92;;
38629;SDS011;24384;51.988;4.644;2023-12-28T04:47:13;19.17;;;2.60;;
38629;SDS011;24384;51.988;4.644;2023-12-28T04:49:39;10.90;;;2.92;;
38629;SDS011;24384;51.988;4.644;2023-12-28T04:52:04;10.57;;;2.17;;
38629;SDS011;24384;51.988;4.644;2023-12-28T04:54:30;14.65;;;2.33;;
38629;SDS011;24384;51.988;4.644;2023-12-28T04:56:55;15.52;;;2.72;;
38629;SDS011;24384;51.988;4.644;2023-12-28T04:59:20;18.92;;;2.67;;
38629;SDS011;24384;51.988;4.644;2023-12-28T05:01:45;10.98;;;2.50;;
38629;SDS011;24384;51.988;4.644;2023-12-28T05:04:11;18.95;;;2.95;;
38629;SDS011;24384;51.988;4.644;2023-12-28T05:06:36;10.38;;;2.90;;
38629;SDS011;24384;51.988;4.644;2023-12-28T05:09:02;15.88;;;3.17;;
38629;SDS011;24384;51.988;4.644;2023-12-28T05:11:28;11.02;;;2.78;;
38629;SDS011;24384;51.988;4.644;2023-12-28T05:13:53;8.25;;;2.40;;
38629;SDS011;24384;51.988;4.644;2023-12-28T05:16:19;13.45;;;3.03;;
38629;SDS011;24384;51.988;4.644;2023-12-28T05:18:45;14.90;;;3.33;;
38629;SDS011;24384;51.988;4.644;2023-12-28T05:21:11;17.10;;;2.67;;
38629;SDS011;24384;51.988;4.644;2023-12-28T05:23:37;11.35;;;2.42;;
38629;SDS011;24384;51.988;4.644;2023-12-28T05:26:02;22.73;;;2.90;;
38629;SDS011;24384;51.988;4.644;2023-12-28T05:28:27;14.48;;;2.85;;
38629;SDS011;24384;51.988;4.644;2023-12-28T05:30:53;9.88;;;2.53;;
38629;SDS011;24384;51.988;4.644;2023-12-28T05:33:18;20.08;;;5.30;;
38629;SDS011;24384;51.988;4.644;2023-12-28T05:35:43;17.10;;;2.72;;
38629;SDS011;24384;51.988;4.644;2023-12-28T05:38:08;11.32;;;2.70;;
38629;SDS011;24384;51.988;4.644;2023-12-28T05:40:34;15.38;;;2.92;;
38629;SDS011;24384;51.988;4.644;2023-12-28T05:43:00;14.00;;;3.00;;
38629;SDS011;24384;51.988;4.644;2023-12-28T05:45:25;21.58;;;3.13;;
38629;SDS011;24384;51.988;4.644;2023-12-28T05:47:50;18.63;;;2.38;;
38629;SDS011;24384;51.988;4.644;2023-12-28T05:50:16;21.73;;;2.88;;
38629;SDS011;24384;51.988;4.644;2023-12-28T05:52:41;12.60;;;2.95;;
38629;SDS011;24384;51.988;4.644;2023-12-28T05:55:06;19.17;;;3.50;;
38629;SDS011;24384;51.988;4.644;2023-12-28T05:57:33;24.42;;;5.28;;
38629;SDS011;24384;51.988;4.644;2023-12-28T05:59:58;12.90;;;2.92;;
38629;SDS011;24384;51.988;4.644;2023-12-28T06:02:24;17.65;;;5.10;;
38629;SDS011;24384;51.988;4.644;2023-12-28T06:04:49;24.35;;;3.80;;
38629;SDS011;24384;51.988;4.644;2023-12-28T06:07:14;21.50;;;4.22;;
38629;SDS011;24384;51.988;4.644;2023-12-28T06:09:40;15.07;;;4.55;;
38629;SDS011;24384;51.988;4.644;2023-12-28T06:12:05;15.27;;;2.42;;
38629;SDS011;24384;51.988;4.644;2023-12-28T06:14:31;13.68;;;2.88;;
38629;SDS011;24384;51.988;4.644;2023-12-28T06:16:56;15.63;;;3.08;;
38629;SDS011;24384;51.988;4.644;2023-12-28T06:19:21;15.98;;;3.30;;
38629;SDS011;24384;51.988;4.644;2023-12-28T06:21:50;27.73;;;4.15;;
38629;SDS011;24384;51.988;4.644;2023-12-28T06:24:15;21.27;;;2.85;;
38629;SDS011;24384;51.988;4.644;2023-12-28T06:26:41;25.10;;;3.83;;
38629;SDS011;24384;51.988;4.644;2023-12-28T06:29:07;19.35;;;4.30;;
38629;SDS011;24384;51.988;4.644;2023-12-28T06:31:34;18.48;;;3.17;;
38629;SDS011;24384;51.988;4.644;2023-12-28T06:34:01;14.40;;;3.85;;
38629;SDS011;24384;51.988;4.644;2023-12-28T06:36:27;22.35;;;3.67;;
38629;SDS011;24384;51.988;4.644;2023-12-28T06:38:53;21.35;;;3.20;;
38629;SDS011;24384;51.988;4.644;2023-12-28T06:41:18;27.35;;;4.90;;
38629;SDS011;24384;51.988;4.644;2023-12-28T06:43:43;18.48;;;3.75;;
38629;SDS011;24384;51.988;4.644;2023-12-28T06:46:09;19.50;;;3.10;;
38629;SDS011;24384;51.988;4.644;2023-12-28T06:48:34;22.70;;;3.53;;
38629;SDS011;24384;51.988;4.644;2023-12-28T06:50:59;23.08;;;3.83;;
38629;SDS011;24384;51.988;4.644;2023-12-28T06:53:25;17.73;;;3.53;;
38629;SDS011;24384;51.988;4.644;2023-12-28T06:55:50;16.15;;;3.40;;
38629;SDS011;24384;51.988;4.644;2023-12-28T06:58:15;22.73;;;5.35;;
38629;SDS011;24384;51.988;4.644;2023-12-28T07:00:41;23.73;;;3.75;;
38629;SDS011;24384;51.988;4.644;2023-12-28T07:03:08;16.70;;;3.53;;
38629;SDS011;24384;51.988;4.644;2023-12-28T07:05:34;20.45;;;4.03;;
38629;SDS011;24384;51.988;4.644;2023-12-28T07:07:59;19.38;;;4.18;;
38629;SDS011;24384;51.988;4.644;2023-12-28T07:10:24;26.30;;;3.92;;
38629;SDS011;24384;51.988;4.644;2023-12-28T07:12:50;20.13;;;3.15;;
38629;SDS011;24384;51.988;4.644;2023-12-28T07:15:15;20.83;;;4.10;;
38629;SDS011;24384;51.988;4.644;2023-12-28T07:17:40;22.77;;;3.42;;
38629;SDS011;24384;51.988;4.644;2023-12-28T07:20:06;22.33;;;4.65;;
38629;SDS011;24384;51.988;4.644;2023-12-28T07:22:34;20.30;;;3.67;;
38629;SDS011;24384;51.988;4.644;2023-12-28T07:24:59;19.73;;;3.50;;
38629;SDS011;24384;51.988;4.644;2023-12-28T07:27:25;20.08;;;4.43;;
38629;SDS011;24384;51.988;4.644;2023-12-28T07:29:50;23.27;;;5.70;;
38629;SDS011;24384;51.988;4.644;2023-12-28T07:32:15;17.88;;;3.72;;
38629;SDS011;24384;51.988;4.644;2023-12-28T07:34:41;20.50;;;3.70;;
38629;SDS011;24384;51.988;4.644;2023-12-28T07:37:07;22.35;;;2.75;;
38629;SDS011;24384;51.988;4.644;2023-12-28T07:39:32;31.13;;;4.07;;
38629;SDS011;24384;51.988;4.644;2023-12-28T07:41:58;23.35;;;4.60;;
38629;SDS011;24384;51.988;4.644;2023-12-28T07:44:23;21.08;;;3.15;;
38629;SDS011;24384;51.988;4.644;2023-12-28T07:46:48;25.65;;;5.10;;
38629;SDS011;24384;51.988;4.644;2023-12-28T07:49:14;15.45;;;2.92;;
38629;SDS011;24384;51.988;4.644;2023-12-28T07:51:39;15.70;;;3.35;;
38629;SDS011;24384;51.988;4.644;2023-12-28T07:54:04;15.40;;;3.63;;
38629;SDS011;24384;51.988;4.644;2023-12-28T07:56:30;20.17;;;3.75;;
38629;SDS011;24384;51.988;4.644;2023-12-28T07:58:55;17.65;;;3.05;;
38629;SDS011;24384;51.988;4.644;2023-12-28T08:01:21;28.55;;;3.67;;
38629;SDS011;24384;51.988;4.644;2023-12-28T08:03:47;14.75;;;4.82;;
38629;SDS011;24384;51.988;4.644;2023-12-28T08:06:12;22.10;;;4.30;;
38629;SDS011;24384;51.988;4.644;2023-12-28T08:08:38;20.55;;;3.92;;
38629;SDS011;24384;51.988;4.644;2023-12-28T08:11:03;21.15;;;4.18;;
38629;SDS011;24384;51.988;4.644;2023-12-28T08:13:28;19.38;;;2.85;;
38629;SDS011;24384;51.988;4.644;2023-12-28T08:15:54;14.07;;;3.63;;
38629;SDS011;24384;51.988;4.644;2023-12-28T08:18:19;20.20;;;3.47;;
38629;SDS011;24384;51.988;4.644;2023-12-28T08:20:44;17.17;;;3.45;;
38629;SDS011;24384;51.988;4.644;2023-12-28T08:23:09;13.02;;;3.15;;
38629;SDS011;24384;51.988;4.644;2023-12-28T08:25:35;17.83;;;3.63;;
38629;SDS011;24384;51.988;4.644;2023-12-28T08:28:00;16.35;;;3.72;;
38629;SDS011;24384;51.988;4.644;2023-12-28T08:30:26;19.52;;;3.97;;
38629;SDS011;24384;51.988;4.644;2023-12-28T08:32:52;19.73;;;3.05;;
38629;SDS011;24384;51.988;4.644;2023-12-28T08:35:18;17.10;;;4.13;;
38629;SDS011;24384;51.988;4.644;2023-12-28T08:37:44;20.75;;;4.22;;
38629;SDS011;24384;51.988;4.644;2023-12-28T08:40:10;21.92;;;4.97;;
38629;SDS011;24384;51.988;4.644;2023-12-28T08:42:35;27.00;;;5.88;;
38629;SDS011;24384;51.988;4.644;2023-12-28T08:45:01;21.90;;;3.88;;
38629;SDS011;24384;51.988;4.644;2023-12-28T08:47:26;19.85;;;3.58;;
38629;SDS011;24384;51.988;4.644;2023-12-28T08:49:52;26.95;;;4.25;;
38629;SDS011;24384;51.988;4.644;2023-12-28T08:52:17;26.73;;;4.53;;
38629;SDS011;24384;51.988;4.644;2023-12-28T08:54:43;17.10;;;2.92;;
38629;SDS011;24384;51.988;4.644;2023-12-28T08:57:09;22.38;;;4.00;;
38629;SDS011;24384;51.988;4.644;2023-12-28T08:59:37;21.13;;;3.90;;
38629;SDS011;24384;51.988;4.644;2023-12-28T09:02:03;20.85;;;4.72;;
38629;SDS011;24384;51.988;4.644;2023-12-28T09:04:28;16.08;;;2.67;;
38629;SDS011;24384;51.988;4.644;2023-12-28T09:06:53;22.35;;;3.70;;
38629;SDS011;24384;51.988;4.644;2023-12-28T09:09:19;24.85;;;4.63;;
38629;SDS011;24384;51.988;4.644;2023-12-28T09:11:44;18.60;;;3.97;;
38629;SDS011;24384;51.988;4.644;2023-12-28T09:14:09;26.10;;;4.05;;
38629;SDS011;24384;51.988;4.644;2023-12-28T09:16:35;19.75;;;3.85;;
38629;SDS011;24384;51.988;4.644;2023-12-28T09:19:00;25.38;;;4.88;;
38629;SDS011;24384;51.988;4.644;2023-12-28T09:21:26;21.15;;;4.60;;
38629;SDS011;24384;51.988;4.644;2023-12-28T09:23:51;18.92;;;3.35;;
38629;SDS011;24384;51.988;4.644;2023-12-28T09:26:17;23.75;;;3.40;;
38629;SDS011;24384;51.988;4.644;2023-12-28T09:28:43;21.52;;;3.08;;
38629;SDS011;24384;51.988;4.644;2023-12-28T09:31:08;21.27;;;3.47;;
38629;SDS011;24384;51.988;4.644;2023-12-28T09:33:34;16.75;;;3.22;;
38629;SDS011;24384;51.988;4.644;2023-12-28T09:35:59;22.77;;;4.53;;
38629;SDS011;24384;51.988;4.644;2023-12-28T09:38:27;17.58;;;2.92;;
38629;SDS011;24384;51.988;4.644;2023-12-28T09:40:53;21.73;;;3.45;;
38629;SDS011;24384;51.988;4.644;2023-12-28T09:43:24;31.00;;;5.30;;
38629;SDS011;24384;51.988;4.644;2023-12-28T09:45:51;29.17;;;4.10;;
38629;SDS011;24384;51.988;4.644;2023-12-28T09:48:17;13.63;;;2.65;;
38629;SDS011;24384;51.988;4.644;2023-12-28T09:50:50;23.77;;;5.53;;
38629;SDS011;24384;51.988;4.644;2023-12-28T09:53:19;22.88;;;3.80;;
38629;SDS011;24384;51.988;4.644;2023-12-28T09:55:48;17.98;;;4.70;;
38629;SDS011;24384;51.988;4.644;2023-12-28T09:58:14;24.13;;;5.25;;
38629;SDS011;24384;51.988;4.644;2023-12-28T10:00:43;23.27;;;4.75;;
38629;SDS011;24384;51.988;4.644;2023-12-28T10:03:09;22.40;;;3.58;;
38629;SDS011;24384;51.988;4.644;2023-12-28T10:05:37;31.50;;;4.68;;
38629;SDS011;24384;51.988;4.644;2023-12-28T10:08:02;16.67;;;3.85;;
38629;SDS011;24384;51.988;4.644;2023-12-28T10:10:28;29.67;;;5.75;;
38629;SDS011;24384;51.988;4.644;2023-12-28T10:12:54;19.35;;;3.80;;
38629;SDS011;24384;51.988;4.644;2023-12-28T10:15:19;16.75;;;3.80;;
38629;SDS011;24384;51.988;4.644;2023-12-28T10:17:45;24.55;;;3.58;;
38629;SDS011;24384;51.988;4.644;2023-12-28T10:20:11;25.88;;;5.13;;
38629;SDS011;24384;51.988;4.644;2023-12-28T10:22:36;24.55;;;4.60;;
38629;SDS011;24384;51.988;4.644;2023-12-28T10:25:02;24.08;;;3.33;;
38629;SDS011;24384;51.988;4.644;2023-12-28T10:27:28;21.13;;;4.55;;
38629;SDS011;24384;51.988;4.644;2023-12-28T10:29:55;21.80;;;5.15;;
38629;SDS011;24384;51.988;4.644;2023-12-28T10:32:21;31.38;;;4.75;;
38629;SDS011;24384;51.988;4.644;2023-12-28T10:34:48;17.73;;;4.00;;
38629;SDS011;24384;51.988;4.644;2023-12-28T10:37:13;28.05;;;6.53;;
38629;SDS011;24384;51.988;4.644;2023-12-28T10:39:41;20.73;;;3.67;;
38629;SDS011;24384;51.988;4.644;2023-12-28T10:42:12;20.60;;;3.78;;
38629;SDS011;24384;51.988;4.644;2023-12-28T10:44:42;25.05;;;3.03;;
38629;SDS011;24384;51.988;4.644;2023-12-28T10:47:15;26.30;;;4.15;;
38629;SDS011;24384;51.988;4.644;2023-12-28T10:49:42;21.35;;;3.78;;
38629;SDS011;24384;51.988;4.644;2023-12-28T10:52:09;24.67;;;4.57;;
38629;SDS011;24384;51.988;4.644;2023-12-28T10:54:47;18.77;;;3.38;;
38629;SDS011;24384;51.988;4.644;2023-12-28T10:57:23;20.70;;;3.38;;
38629;SDS011;24384;51.988;4.644;2023-12-28T11:00:13;15.23;;;3.33;;
38629;SDS011;24384;51.988;4.644;2023-12-28T11:02:44;29.80;;;4.93;;
38629;SDS011;24384;51.988;4.644;2023-12-28T11:05:13;18.27;;;4.35;;
38629;SDS011;24384;51.988;4.644;2023-12-28T11:07:40;20.90;;;4.15;;
38629;SDS011;24384;51.988;4.644;2023-12-28T11:10:06;17.45;;;3.70;;
38629;SDS011;24384;51.988;4.644;2023-12-28T11:12:32;22.88;;;3.65;;
38629;SDS011;24384;51.988;4.644;2023-12-28T11:14:58;19.85;;;3.17;;
38629;SDS011;24384;51.988;4.644;2023-12-28T11:17:24;23.10;;;3.90;;
38629;SDS011;24384;51.988;4.644;2023-12-28T11:19:50;25.90;;;3.30;;
38629;SDS011;24384;51.988;4.644;2023-12-28T11:22:18;14.80;;;3.20;;
38629;SDS011;24384;51.988;4.644;2023-12-28T11:24:46;28.20;;;3.70;;
38629;SDS011;24384;51.988;4.644;2023-12-28T11:27:11;25.08;;;4.57;;
38629;SDS011;24384;51.988;4.644;2023-12-28T11:29:37;23.88;;;3.08;;
38629;SDS011;24384;51.988;4.644;2023-12-28T11:32:03;28.33;;;5.72;;
38629;SDS011;24384;51.988;4.644;2023-12-28T11:34:30;32.72;;;3.85;;
38629;SDS011;24384;51.988;4.644;2023-12-28T11:36:59;20.05;;;4.97;;
38629;SDS011;24384;51.988;4.644;2023-12-28T11:39:31;25.10;;;4.55;;
38629;SDS011;24384;51.988;4.644;2023-12-28T11:42:01;22.90;;;5.05;;
38629;SDS011;24384;51.988;4.644;2023-12-28T11:44:28;23.63;;;3.67;;
38629;SDS011;24384;51.988;4.644;2023-12-28T11:46:54;33.85;;;6.80;;
38629;SDS011;24384;51.988;4.644;2023-12-28T11:49:24;26.15;;;5.07;;
38629;SDS011;24384;51.988;4.644;2023-12-28T11:51:56;27.33;;;4.45;;
38629;SDS011;24384;51.988;4.644;2023-12-28T11:54:24;22.60;;;4.75;;
38629;SDS011;24384;51.988;4.644;2023-12-28T11:56:50;20.63;;;4.05;;
38629;SDS011;24384;51.988;4.644;2023-12-28T11:59:15;23.70;;;3.78;;
38629;SDS011;24384;51.988;4.644;2023-12-28T12:01:42;22.48;;;5.53;;
38629;SDS011;24384;51.988;4.644;2023-12-28T12:04:07;19.33;;;4.55;;
38629;SDS011;24384;51.988;4.644;2023-12-28T12:06:33;25.25;;;5.53;;
38629;SDS011;24384;51.988;4.644;2023-12-28T12:08:58;23.55;;;5.25;;
38629;SDS011;24384;51.988;4.644;2023-12-28T12:11:24;21.83;;;4.10;;
38629;SDS011;24384;51.988;4.644;2023-12-28T12:13:50;19.80;;;4.57;;
38629;SDS011;24384;51.988;4.644;2023-12-28T12:16:16;23.15;;;3.67;;
38629;SDS011;24384;51.988;4.644;2023-12-28T12:18:42;19.92;;;3.95;;
38629;SDS011;24384;51.988;4.644;2023-12-28T12:21:07;23.60;;;3.20;;
38629;SDS011;24384;51.988;4.644;2023-12-28T12:23:33;23.92;;;4.07;;
38629;SDS011;24384;51.988;4.644;2023-12-28T12:25:58;18.88;;;4.35;;
38629;SDS011;24384;51.988;4.644;2023-12-28T12:28:26;35.88;;;6.32;;
38629;SDS011;24384;51.988;4.644;2023-12-28T12:30:53;25.77;;;4.40;;
38629;SDS011;24384;51.988;4.644;2023-12-28T12:33:21;30.13;;;5.35;;
38629;SDS011;24384;51.988;4.644;2023-12-28T12:35:50;17.88;;;3.75;;
38629;SDS011;24384;51.988;4.644;2023-12-28T12:38:15;21.13;;;3.65;;
38629;SDS011;24384;51.988;4.644;2023-12-28T12:40:41;18.80;;;3.40;;
38629;SDS011;24384;51.988;4.644;2023-12-28T12:43:06;26.17;;;6.22;;
38629;SDS011;24384;51.988;4.644;2023-12-28T12:45:34;18.75;;;3.38;;
38629;SDS011;24384;51.988;4.644;2023-12-28T12:48:03;22.88;;;3.97;;
38629;SDS011;24384;51.988;4.644;2023-12-28T12:50:29;25.80;;;4.25;;
38629;SDS011;24384;51.988;4.644;2023-12-28T12:52:56;17.98;;;3.67;;
38629;SDS011;24384;51.988;4.644;2023-12-28T12:55:24;21.95;;;3.72;;
38629;SDS011;24384;51.988;4.644;2023-12-28T12:57:50;25.05;;;3.92;;
38629;SDS011;24384;51.988;4.644;2023-12-28T13:00:16;27.80;;;5.60;;
38629;SDS011;24384;51.988;4.644;2023-12-28T13:02:41;19.23;;;3.20;;
38629;SDS011;24384;51.988;4.644;2023-12-28T13:05:07;18.13;;;3.28;;
38629;SDS011;24384;51.988;4.644;2023-12-28T13:07:33;24.25;;;3.97;;
38629;SDS011;24384;51.988;4.644;2023-12-28T13:09:58;22.77;;;4.47;;
38629;SDS011;24384;51.988;4.644;2023-12-28T13:12:24;27.92;;;5.18;;
38629;SDS011;24384;51.988;4.644;2023-12-28T13:14:50;25.60;;;4.65;;
38629;SDS011;24384;51.988;4.644;2023-12-28T13:17:15;26.23;;;4.47;;
38629;SDS011;24384;51.988;4.644;2023-12-28T13:19:41;19.42;;;4.80;;
38629;SDS011;24384;51.988;4.644;2023-12-28T13:22:07;18.08;;;4.65;;
38629;SDS011;24384;51.988;4.644;2023-12-28T13:24:32;28.40;;;4.88;;
38629;SDS011;24384;51.988;4.644;2023-12-28T13:26:58;27.73;;;3.80;;
38629;SDS011;24384;51.988;4.644;2023-12-28T13:29:23;19.27;;;3.88;;
38629;SDS011;24384;51.988;4.644;2023-12-28T13:31:48;18.38;;;3.17;;
38629;SDS011;24384;51.988;4.644;2023-12-28T13:34:15;27.55;;;4.15;;
38629;SDS011;24384;51.988;4.644;2023-12-28T13:36:41;27.27;;;4.30;;
38629;SDS011;24384;51.988;4.644;2023-12-28T13:39:06;23.58;;;3.45;;
38629;SDS011;24384;51.988;4.644;2023-12-28T13:41:34;31.70;;;6.57;;
38629;SDS011;24384;51.988;4.644;2023-12-28T13:43:59;23.20;;;4.97;;
38629;SDS011;24384;51.988;4.644;2023-12-28T13:46:28;23.00;;;3.78;;
38629;SDS011;24384;51.988;4.644;2023-12-28T13:48:54;25.25;;;3.58;;
38629;SDS011;24384;51.988;4.644;2023-12-28T13:51:19;26.30;;;6.50;;
38629;SDS011;24384;51.988;4.644;2023-12-28T13:53:45;25.42;;;4.50;;
38629;SDS011;24384;51.988;4.644;2023-12-28T13:56:10;15.23;;;3.58;;
38629;SDS011;24384;51.988;4.644;2023-12-28T13:58:35;29.52;;;5.22;;
38629;SDS011;24384;51.988;4.644;2023-12-28T14:01:01;23.17;;;4.03;;
38629;SDS011;24384;51.988;4.644;2023-12-28T14:03:27;29.30;;;4.45;;
38629;SDS011;24384;51.988;4.644;2023-12-28T14:05:53;26.05;;;4.22;;
38629;SDS011;24384;51.988;4.644;2023-12-28T14:08:18;27.88;;;4.30;;
38629;SDS011;24384;51.988;4.644;2023-12-28T14:10:43;28.52;;;4.13;;
38629;SDS011;24384;51.988;4.644;2023-12-28T14:13:09;25.42;;;4.43;;
38629;SDS011;24384;51.988;4.644;2023-12-28T14:15:34;32.45;;;3.60;;
38629;SDS011;24384;51.988;4.644;2023-12-28T14:17:59;18.70;;;4.15;;
38629;SDS011;24384;51.988;4.644;2023-12-28T14:20:24;26.90;;;4.60;;
38629;SDS011;24384;51.988;4.644;2023-12-28T14:22:50;29.48;;;4.82;;
38629;SDS011;24384;51.988;4.644;2023-12-28T14:25:15;31.25;;;5.20;;
38629;SDS011;24384;51.988;4.644;2023-12-28T14:27:41;25.83;;;5.07;;
38629;SDS011;24384;51.988;4.644;2023-12-28T14:30:08;25.95;;;4.35;;
38629;SDS011;24384;51.988;4.644;2023-12-28T14:32:35;25.65;;;4.57;;